Latest Coastal Weather Observations for Coles Point

IDS60701

Issued at 5:41 am CDT Tuesday 9 February 2016 (issued every 10 minutes, with the page automatically refreshed every 10 minutes)

About coastal observations | Map of coastal stations | Coastal observations for SA | Marine services | Other Formats
Station Details ID: 018191 Name: COLES POINT Lat: -34.37 Lon: 135.37 Height: 28.0 m
Data from the previous 72 hours. | See also: Recent months at Coles Point
Date/Time
CDT
Temp

°C
Wind Pressure Rain
since 9am
mm
Weather Cloud Vis
km
Sea
Height
m
Swell
Dir
 
Speed
knots
Gust
knots
hPa Trend Height
m
Period
s
Dir
09/05:30am 12.7 CALM 0 0 1019.6 - 0.0 - - - - - - -
09/05:00am 12.1 SSE 3 4 1019.5 - 0.0 - - - - - - -
09/04:30am 14.7 SSE 5 6 1019.5 - 0.0 - - - - - - -
09/04:00am 14.5 SSE 6 7 1019.6 - 0.0 - - - - - - -
09/03:30am 14.8 SSE 5 7 1019.7 - 0.0 - - - - - - -
09/03:00am 14.9 SSE 6 7 1019.9 - 0.0 - - - - - - -
09/02:30am 15.3 SSE 5 7 1020.4 - 0.0 - - - - - - -
09/02:00am 15.9 SSE 10 12 1020.6 - 0.0 - - - - - - -
09/01:30am 15.6 SSE 6 7 1021.1 - 0.0 - - - - - - -
09/01:00am 16.2 SSE 8 9 1021.5 - 0.0 - - - - - - -
09/12:30am 16.4 S 7 8 1021.7 - 0.0 - - - - - - -
09/12:00am 16.5 S 5 7 1021.8 - 0.0 - - - - - - -
 
Date/Time
CDT
Temp

°C
Wind Pressure Rain
since 9am
mm
Weather Cloud Vis
km
Sea
Height
m
Swell
Dir
 
Speed
knots
Gust
knots
hPa Trend Height
m
Period
s
Dir
08/11:30pm 16.4 S 5 7 1022.0 - 0.0 - - - - - - -
08/11:00pm 16.7 SE 7 9 1022.1 - 0.0 - - - - - - -
08/10:30pm 17.1 SE 9 12 1022.2 - 0.0 - - - - - - -
08/10:00pm 17.3 SE 9 13 1022.1 - 0.0 - - - - - - -
08/09:30pm 17.6 SSE 8 12 1021.9 - 0.0 - - - - - - -
08/09:00pm 18.5 SSE 11 15 1021.6 - 0.0 - - - - - - -
08/08:30pm 19.4 SSE 13 16 1021.3 - 0.0 - - - - - - -
08/08:00pm 20.6 SSE 14 19 1021.0 - 0.0 - - - - - - -
08/07:30pm 21.8 SSE 14 18 1020.8 - 0.0 - - - - - - -
08/07:00pm 22.8 SSE 15 19 1020.6 - 0.0 - - - - - - -
08/06:30pm 24.0 SSE 14 19 1020.6 - 0.0 - - - - - - -
08/06:00pm 24.6 SE 14 20 1020.7 - 0.0 - - - - - - -
08/05:30pm 25.1 SE 13 19 1020.8 - 0.0 - - - - - - -
08/05:00pm 24.8 SE 15 19 1020.8 - 0.0 - - - - - - -
08/04:30pm 25.3 SSE 14 19 1020.9 - 0.0 - - - - - - -
08/04:00pm 25.7 SE 13 18 1021.2 - 0.0 - - - - - - -
08/03:30pm 25.8 SE 12 19 1021.4 - 0.0 - - - - - - -
08/03:00pm 26.2 SE 10 18 1021.7 - 0.0 - - - - - - -
08/02:30pm 24.4 SE 12 18 1021.9 - 0.0 - - - - - - -
08/02:00pm 24.7 SE 12 18 1022.1 - 0.0 - - - - - - -
08/01:30pm 23.4 SSE 12 18 1022.3 - 0.0 - - - - - - -
08/01:00pm 23.3 SE 11 20 1022.7 - 0.0 - - - - - - -
08/12:30pm 22.8 SE 13 17 1023.0 - 0.0 - - - - - - -
08/12:00pm 22.5 SSE 14 18 1023.3 - 0.0 - - - - - - -
08/11:30am 21.5 SE 11 17 1023.5 - 0.0 - - - - - - -
08/11:00am 21.1 ESE 13 19 1023.7 - 0.0 - - - - - - -
08/10:30am 19.7 SE 12 20 1023.9 - 0.0 - - - - - - -
08/10:00am 19.9 SE 11 15 1023.9 - 0.0 - - - - - - -
08/09:30am 18.7 SE 12 18 1024.0 - 0.0 - - - - - - -
08/09:00am 18.0 SE 12 16 1023.8 - 0.0 - - - - - - -
08/08:30am 17.5 SE 10 14 1023.5 - 0.0 - - - - - - -
08/08:00am 15.8 SSE 8 9 1023.2 - 0.0 - - - - - - -
08/07:30am 14.0 SSE 7 8 1022.9 - 0.0 - - - - - - -
08/07:00am 13.6 SSE 7 9 1022.7 - 0.0 - - - - - - -
08/06:30am 13.6 SSE 7 9 1022.5 - 0.0 - - - - - - -
08/06:00am 13.3 SSE 6 7 1022.0 - 0.0 - - - - - - -
08/05:30am 13.5 SSE 5 6 1021.7 - 0.0 - - - - - - -
08/05:00am 13.4 SSE 6 7 1021.5 - 0.0 - - - - - - -
08/04:30am 14.1 SSE 6 7 1021.6 - 0.0 - - - - - - -
08/04:00am 15.2 SSE 8 12 1021.5 - 0.0 - - - - - - -
08/03:30am 15.5 SE 10 13 1021.5 - 0.0 - - - - - - -
08/03:00am 15.7 SE 10 13 1021.6 - 0.0 - - - - - - -
08/02:30am 15.7 SSE 12 15 1021.6 - 0.0 - - - - - - -
08/02:00am 15.4 SSE 7 11 1021.8 - 0.0 - - - - - - -
08/01:30am 16.0 SSE 10 14 1022.0 - 0.0 - - - - - - -
08/01:00am 15.9 SSE 9 13 1022.0 - 0.0 - - - - - - -
08/12:30am 16.0 SSE 7 10 1022.2 - 0.0 - - - - - - -
08/12:00am 16.1 SSE 8 11 1022.2 - 0.0 - - - - - - -
 
Date/Time
CDT
Temp

°C
Wind Pressure Rain
since 9am
mm
Weather Cloud Vis
km
Sea
Height
m
Swell
Dir
 
Speed
knots
Gust
knots
hPa Trend Height
m
Period
s
Dir
07/11:30pm 16.4 SSE 9 13 1022.2 - 0.0 - - - - - - -
07/11:00pm 16.6 SSE 8 12 1022.2 - 0.0 - - - - - - -
07/10:30pm 16.7 SSE 7 10 1022.0 - 0.0 - - - - - - -
07/10:00pm 17.1 SSE 9 13 1021.8 - 0.0 - - - - - - -
07/09:30pm 17.4 SSE 8 12 1021.4 - 0.0 - - - - - - -
07/09:00pm 17.9 SSE 12 15 1020.8 - 0.0 - - - - - - -
07/08:30pm 18.4 SSE 13 18 1020.4 - 0.0 - - - - - - -
07/08:00pm 19.1 S 14 19 1020.2 - 0.0 - - - - - - -
07/07:30pm 20.1 S 16 21 1019.6 - 0.0 - - - - - - -
07/07:00pm 21.0 S 16 22 1019.1 - 0.0 - - - - - - -
07/06:30pm 21.6 S 17 23 1019.0 - 0.0 - - - - - - -
07/06:00pm 21.7 S 17 25 1018.8 - 0.0 - - - - - - -
07/05:30pm 21.8 S 18 24 1018.7 - 0.0 - - - - - - -
07/05:00pm 22.6 S 19 24 1018.6 - 0.0 - - - - - - -
07/04:30pm 23.2 S 17 21 1018.5 - 0.0 - - - - - - -
07/04:00pm 22.9 S 17 22 1018.5 - 0.0 - - - - - - -
07/03:30pm 22.8 SSW 17 22 1018.6 - 0.0 - - - - - - -
07/03:00pm 23.6 SSW 16 21 1018.7 - 0.0 - - - - - - -
07/02:30pm 24.2 S 15 21 1018.7 - 0.0 - - - - - - -
07/02:00pm 22.7 SSW 17 21 1019.0 - 0.0 - - - - - - -
07/01:30pm 22.4 SSW 16 21 1019.1 - 0.0 - - - - - - -
07/01:00pm 22.4 SSW 16 20 1019.3 - 0.0 - - - - - - -
07/12:30pm 22.1 SSW 15 18 1019.5 - 0.0 - - - - - - -
07/12:00pm 21.8 SW 15 18 1019.6 - 0.0 - - - - - - -
07/11:30am 21.4 SSW 13 16 1019.6 - 0.0 - - - - - - -
07/11:00am 21.6 SSE 8 13 1019.8 - 0.0 - - - - - - -
07/10:30am 20.1 SSE 9 13 1019.9 - 0.0 - - - - - - -
07/10:00am 19.6 SSE 10 13 1020.0 - 0.0 - - - - - - -
07/09:30am 18.5 SE 9 12 1019.9 - 0.0 - - - - - - -
07/09:00am 18.0 SE 9 12 1019.8 - 0.0 - - - - - - -
07/08:30am 16.9 SSE 8 11 1019.6 - 0.0 - - - - - - -
07/08:00am 15.9 SSE 6 9 1019.1 - 0.0 - - - - - - -
07/07:30am 14.2 SSE 5 5 1018.8 - 0.0 - - - - - - -
07/07:00am 13.7 SE 5 6 1018.5 - 0.0 - - - - - - -
07/06:30am 14.2 SSE 5 7 1018.0 - 0.0 - - - - - - -
07/06:00am 14.3 SE 6 7 1017.6 - 0.0 - - - - - - -
07/05:30am 14.9 SSE 6 9 1017.4 - 0.0 - - - - - - -
07/05:00am 15.2 SSE 7 9 1017.3 - 0.0 - - - - - - -
07/04:30am 15.4 SSE 7 11 1017.3 - 0.0 - - - - - - -
07/04:00am 15.3 SSE 7 11 1017.1 - 0.0 - - - - - - -
07/03:30am 14.8 SSE 5 9 1016.9 - 0.0 - - - - - - -
07/03:00am 14.8 SSE 8 11 1016.8 - 0.0 - - - - - - -
07/02:30am 15.0 SE 9 13 1016.6 - 0.0 - - - - - - -
07/02:00am 15.4 SSE 10 13 1016.8 - 0.0 - - - - - - -
07/01:30am 15.1 SSE 6 9 1016.8 - 0.0 - - - - - - -
07/01:00am 15.1 SSE 6 9 1016.8 - 0.0 - - - - - - -
07/12:30am 15.2 SSE 4 7 1017.4 - 0.0 - - - - - - -
07/12:00am 15.5 SSE 4 6 1017.7 - 0.0 - - - - - - -
 
Date/Time
CDT
Temp

°C
Wind Pressure Rain
since 9am
mm
Weather Cloud Vis
km
Sea
Height
m
Swell
Dir
 
Speed
knots
Gust
knots
hPa Trend Height
m
Period
s
Dir
06/11:30pm 15.9 S 4 7 1017.8 - 0.0 - - - - - - -
06/11:00pm 15.7 S 4 8 1017.6 - 0.0 - - - - - - -
06/10:30pm 16.2 S 5 9 1017.4 - 0.0 - - - - - - -
06/10:00pm 16.5 S 8 11 1017.1 - 0.0 - - - - - - -
06/09:30pm 16.6 S 7 10 1016.8 - 0.0 - - - - - - -
06/09:00pm 17.1 SSE 12 15 1016.6 - 0.0 - - - - - - -
06/08:30pm 17.6 S 12 16 1016.4 - 0.0 - - - - - - -
06/08:00pm 18.4 S 11 17 1016.2 - 0.0 - - - - - - -
06/07:30pm 19.6 S 14 18 1015.6 - 0.0 - - - - - - -
06/07:00pm 20.6 S 14 21 1015.3 - 0.0 - - - - - - -
06/06:30pm 21.4 S 14 19 1015.1 - 0.0 - - - - - - -
06/06:00pm 22.7 S 14 18 1014.9 - 0.0 - - - - - - -
06/05:30pm 21.9 S 16 20 1014.9 - 0.0 - - - - - - -
06/05:00pm 22.7 S 15 20 1015.0 - 0.0 - - - - - - -
06/04:30pm 23.6 SSW 15 20 1014.9 - 0.0 - - - - - - -
06/04:00pm 23.3 SSW 16 21 1015.0 - 0.0 - - - - - - -
06/03:30pm 24.0 SSW 15 20 1015.0 - 0.0 - - - - - - -
06/03:00pm 24.0 SSW 15 19 1015.3 - 0.0 - - - - - - -
06/02:30pm 23.2 SW 16 20 1015.5 - 0.0 - - - - - - -
06/02:00pm 23.4 SSW 14 18 1015.7 - 0.0 - - - - - - -
06/01:30pm 23.2 SSW 15 19 1015.9 - 0.0 - - - - - - -
06/01:00pm 22.8 SSW 14 18 1015.9 - 0.0 - - - - - - -
06/12:30pm 22.3 SSW 14 17 1016.1 - 0.0 - - - - - - -
06/12:00pm 22.2 SSW 13 17 1016.3 - 0.0 - - - - - - -
06/11:30am 21.6 SSW 12 17 1016.4 - 0.0 - - - - - - -
06/11:00am 20.7 SW 11 13 1016.5 - 0.0 - - - - - - -
06/10:30am 20.7 S 8 11 1016.7 - 0.0 - - - - - - -
06/10:00am 19.0 SW 10 13 1016.8 - 0.0 - - - - - - -
06/09:30am 18.7 S 6 8 1016.6 - 0.0 - - - - - - -
06/09:00am 17.4 SW 5 7 1016.5 - 0.0 - - - - - - -
06/08:30am 15.9 SW 3 4 1016.3 - 0.0 - - - - - - -
06/08:00am 14.1 CALM 0 0 1016.3 - 0.0 - - - - - - -
06/07:30am 11.4 CALM 0 1 1016.0 - 0.0 - - - - - - -
06/07:00am 12.5 SSE 4 5 1015.9 - 0.0 - - - - - - -
06/06:30am 11.6 SSE 1 3 1015.7 - 0.0 - - - - - - -
06/06:00am 13.2 SSE 5 6 1015.5 - 0.0 - - - - - - -

Other Formats:

Comma delimited format used in spreadsheet applications
http://www.bom.gov.au/fwo/IDS60701/IDS60701.94658.axf

JavaScript Object Notation format (JSON) in row-major order
http://www.bom.gov.au/fwo/IDS60701/IDS60701.94658.json